createdAt,value
2022-11-29T00:01:31.199Z,101444.66
2022-11-29T00:03:57.662Z,101444.81
2022-11-29T00:06:26.350Z,101444.00
2022-11-29T00:08:54.481Z,101449.34
2022-11-29T00:11:24.318Z,101447.19
2022-11-29T00:13:50.677Z,101445.56
2022-11-29T00:16:17.090Z,101445.75
2022-11-29T00:18:43.498Z,101442.47
2022-11-29T00:21:09.889Z,101447.19
2022-11-29T00:23:36.324Z,101441.69
2022-11-29T00:26:07.406Z,101444.75
2022-11-29T00:28:35.659Z,101456.31
2022-11-29T00:31:16.376Z,101443.31
2022-11-29T00:33:42.847Z,101455.03
2022-11-29T00:36:09.562Z,101454.03
2022-11-29T00:38:35.912Z,101464.94
2022-11-29T00:41:02.528Z,101466.13
2022-11-29T00:43:28.889Z,101461.59
2022-11-29T00:45:55.321Z,101479.81
2022-11-29T00:48:21.814Z,101470.38
2022-11-29T00:50:48.199Z,101480.97
2022-11-29T00:53:14.660Z,101470.22
2022-11-29T00:55:41.018Z,101476.25
2022-11-29T00:58:07.348Z,101468.31
2022-11-29T01:00:33.719Z,101468.78
2022-11-29T01:03:00.089Z,101473.16
2022-11-29T01:05:26.434Z,101479.22
2022-11-29T01:07:52.795Z,101478.84
2022-11-29T01:10:19.266Z,101473.81
2022-11-29T01:12:45.658Z,101475.44
2022-11-29T01:15:12.444Z,101485.25
2022-11-29T01:17:39.583Z,101494.19
2022-11-29T01:20:10.005Z,101479.84
2022-11-29T01:22:37.577Z,101498.78
2022-11-29T01:25:05.896Z,101496.31
2022-11-29T01:27:32.250Z,101486.75
2022-11-29T01:29:58.791Z,101509.22
2022-11-29T01:32:25.201Z,101497.19
2022-11-29T01:34:51.571Z,101497.03
2022-11-29T01:37:17.966Z,101508.75
2022-11-29T01:39:44.363Z,101508.75
2022-11-29T01:42:11.864Z,101500.16
2022-11-29T01:44:38.169Z,101517.38
2022-11-29T01:47:05.087Z,101511.34
2022-11-29T01:49:41.423Z,101510.06
2022-11-29T01:52:19.222Z,101516.41
2022-11-29T01:54:49.363Z,101524.56
2022-11-29T01:57:16.477Z,101518.38
2022-11-29T01:59:47.704Z,101513.22
2022-11-29T02:02:18.175Z,101514.50
2022-11-29T02:04:46.759Z,101521.31
2022-11-29T02:07:13.659Z,101519.06
2022-11-29T02:09:40.018Z,101514.53
2022-11-29T02:12:17.033Z,101525.25
2022-11-29T02:15:13.528Z,101521.84
2022-11-29T02:17:58.682Z,101528.88
2022-11-29T02:20:46.443Z,101531.66
2022-11-29T02:23:31.398Z,101531.97
2022-11-29T02:26:09.728Z,101530.22
2022-11-29T02:29:01.960Z,101535.75
2022-11-29T02:31:35.590Z,101525.69
2022-11-29T02:34:06.208Z,101540.16
2022-11-29T02:36:47.326Z,101530.22
2022-11-29T02:39:33.906Z,101534.78
2022-11-29T02:42:12.281Z,101554.00
2022-11-29T02:45:31.519Z,101553.22
2022-11-29T02:48:10.929Z,101540.31
2022-11-29T02:50:55.334Z,101535.94
2022-11-29T02:53:33.660Z,101545.88
2022-11-29T02:55:59.902Z,101549.78
2022-11-29T02:58:47.135Z,101538.25
2022-11-29T03:01:26.672Z,101541.50
2022-11-29T03:04:14.926Z,101548.00
2022-11-29T03:06:59.815Z,101541.66
2022-11-29T03:09:39.337Z,101549.97
2022-11-29T03:12:24.682Z,101548.78
2022-11-29T03:15:17.440Z,101546.81
2022-11-29T03:18:09.232Z,101551.88
2022-11-29T03:20:45.927Z,101552.06
2022-11-29T03:23:36.261Z,101557.91
2022-11-29T03:26:07.313Z,101573.56
2022-11-29T03:28:48.993Z,101565.09
2022-11-29T03:31:29.944Z,101560.41
2022-11-29T03:34:20.534Z,101571.31
2022-11-29T03:37:01.010Z,101566.41
2022-11-29T03:39:41.416Z,101564.81
2022-11-29T03:42:13.976Z,101573.78
2022-11-29T03:44:50.896Z,101578.03
2022-11-29T03:47:22.947Z,101583.72
2022-11-29T03:50:11.247Z,101589.22
2022-11-29T03:52:52.342Z,101581.75
2022-11-29T03:55:21.480Z,101592.53
2022-11-29T03:58:17.465Z,101595.28
2022-11-29T04:00:49.986Z,101600.50
2022-11-29T04:03:31.596Z,101598.75
2022-11-29T04:06:30.401Z,101602.00
2022-11-29T04:09:21.381Z,101600.19
2022-11-29T04:12:27.917Z,101588.63
2022-11-29T04:15:15.427Z,101608.03
2022-11-29T04:18:12.069Z,101610.63
2022-11-29T04:21:05.581Z,101605.25
2022-11-29T04:23:55.631Z,101599.38
2022-11-29T04:26:45.815Z,101601.63
2022-11-29T04:29:33.927Z,101604.25
2022-11-29T04:32:27.110Z,101593.03
2022-11-29T04:35:14.636Z,101607.03
2022-11-29T04:38:26.038Z,101609.19
2022-11-29T04:41:17.136Z,101593.53
2022-11-29T04:44:11.980Z,101615.19
2022-11-29T04:47:04.942Z,101615.53
2022-11-29T04:49:49.562Z,101628.28
2022-11-29T04:52:31.098Z,101626.34
2022-11-29T04:55:00.393Z,101642.19
2022-11-29T04:57:49.117Z,101641.69
2022-11-29T05:00:18.533Z,101646.41
2022-11-29T05:03:01.424Z,101638.63
2022-11-29T05:05:55.222Z,101635.69
2022-11-29T05:08:45.203Z,101647.56
2022-11-29T05:11:43.284Z,101649.16
2022-11-29T05:14:40.634Z,101654.06
2022-11-29T05:17:44.586Z,101658.97
2022-11-29T05:20:44.301Z,101660.59
2022-11-29T05:23:32.312Z,101673.31
2022-11-29T05:26:22.602Z,101657.47
2022-11-29T05:29:21.146Z,101671.50
2022-11-29T05:31:56.425Z,101679.19
2022-11-29T05:34:37.782Z,101667.44
2022-11-29T05:37:25.300Z,101677.22
2022-11-29T05:40:24.132Z,101680.63
2022-11-29T05:43:08.591Z,101684.22
2022-11-29T05:46:03.372Z,101684.41
2022-11-29T05:48:57.893Z,101682.59
2022-11-29T05:51:46.092Z,101681.94
2022-11-29T05:54:27.162Z,101690.56
2022-11-29T05:57:07.986Z,101683.75
2022-11-29T05:59:38.228Z,101694.19
2022-11-29T06:02:26.679Z,101702.81
2022-11-29T06:05:12.952Z,101690.44
2022-11-29T06:08:07.679Z,101698.56
2022-11-29T06:10:39.228Z,101684.88
2022-11-29T06:13:33.408Z,101694.00
2022-11-29T06:16:35.631Z,101704.78
2022-11-29T06:19:39.791Z,101701.69
2022-11-29T06:22:43.559Z,101706.09
2022-11-29T06:25:13.678Z,101702.84
2022-11-29T06:28:15.598Z,101712.78
2022-11-29T06:30:57.070Z,101714.38
2022-11-29T06:33:36.773Z,101721.41
2022-11-29T06:36:18.649Z,101724.66
2022-11-29T06:38:45.239Z,101725.66
2022-11-29T06:41:30.033Z,101734.28
2022-11-29T06:43:56.756Z,101726.97
2022-11-29T06:46:44.389Z,101742.28
2022-11-29T06:49:24.977Z,101738.06
2022-11-29T06:52:20.309Z,101733.50
2022-11-29T06:55:02.466Z,101749.47
2022-11-29T06:57:47.612Z,101750.44
2022-11-29T07:00:27.896Z,101760.03
2022-11-29T07:03:29.657Z,101759.41
2022-11-29T07:05:57.452Z,101762.34
2022-11-29T07:08:24.645Z,101767.56
2022-11-29T07:10:53.339Z,101765.13
2022-11-29T07:13:21.163Z,101771.13
2022-11-29T07:15:57.599Z,101778.66
2022-11-29T07:18:52.360Z,101769.38
2022-11-29T07:21:36.086Z,101773.75
2022-11-29T07:24:25.826Z,101779.94
2022-11-29T07:27:05.223Z,101791.69
2022-11-29T07:30:15.811Z,101781.09
2022-11-29T07:33:00.097Z,101788.94
2022-11-29T07:35:37.995Z,101790.53
2022-11-29T07:38:04.272Z,101798.38
2022-11-29T07:40:37.576Z,101788.75
2022-11-29T07:43:38.054Z,101798.38
2022-11-29T07:46:04.433Z,101795.44
2022-11-29T07:48:30.803Z,101799.00
2022-11-29T07:50:57.511Z,101804.22
2022-11-29T07:53:24.389Z,101789.88
2022-11-29T07:55:50.946Z,101806.84
2022-11-29T07:58:18.370Z,101805.38
2022-11-29T08:00:45.695Z,101805.38
2022-11-29T08:03:12.248Z,101805.22
2022-11-29T08:05:39.073Z,101812.88
2022-11-29T08:08:06.377Z,101823.81
2022-11-29T08:10:32.736Z,101818.59
2022-11-29T08:12:59.098Z,101817.63
2022-11-29T08:15:25.729Z,101816.97
2022-11-29T08:17:52.868Z,101820.22
2022-11-29T08:20:19.360Z,101830.81
2022-11-29T08:22:45.733Z,101826.41
2022-11-29T08:25:12.373Z,101839.16
2022-11-29T08:27:39.065Z,101832.13
2022-11-29T08:30:06.662Z,101838.66
2022-11-29T08:32:34.053Z,101836.53
2022-11-29T08:35:00.407Z,101838.50
2022-11-29T08:37:26.720Z,101827.88
2022-11-29T08:39:52.993Z,101855.97
2022-11-29T08:42:19.366Z,101849.59
2022-11-29T08:44:45.903Z,101856.28
2022-11-29T08:47:12.481Z,101834.75
2022-11-29T08:49:38.882Z,101843.88
2022-11-29T08:52:05.207Z,101842.72
2022-11-29T08:54:31.555Z,101854.47
2022-11-29T08:57:37.981Z,101858.22
2022-11-29T08:59:44.237Z,101874.03
2022-11-29T09:02:10.614Z,101855.78
2022-11-29T09:04:37.006Z,101864.94
2022-11-29T09:07:03.338Z,101873.56
2022-11-29T09:09:29.669Z,101861.84
2022-11-29T09:11:56.021Z,101863.94
2022-11-29T09:14:22.380Z,101873.88
2022-11-29T09:16:48.772Z,101859.72
2022-11-29T09:19:15.200Z,101872.13
2022-11-29T09:21:41.589Z,101869.31
2022-11-29T09:24:07.990Z,101870.63
2022-11-29T09:26:36.676Z,101880.91
2022-11-29T09:29:05.301Z,101885.00
2022-11-29T09:31:32.947Z,101887.44
2022-11-29T09:33:59.372Z,101884.16
2022-11-29T09:36:28.863Z,101883.84
2022-11-29T09:38:56.687Z,101885.47
2022-11-29T09:41:43.002Z,101900.16
2022-11-29T09:44:30.692Z,101906.03
2022-11-29T09:47:31.859Z,101904.09
2022-11-29T09:50:09.119Z,101909.97
2022-11-29T09:52:47.641Z,101895.75
2022-11-29T09:55:45.435Z,101909.81
2022-11-29T09:58:17.958Z,101902.47
2022-11-29T10:00:49.975Z,101908.81
2022-11-29T10:03:29.084Z,101909.66
2022-11-29T10:06:02.414Z,101906.69
2022-11-29T10:08:34.700Z,101910.28
2022-11-29T10:11:14.368Z,101910.59
2022-11-29T10:13:43.144Z,101905.84
2022-11-29T10:16:20.527Z,101904.03
2022-11-29T10:18:52.295Z,101910.09
2022-11-29T10:21:23.204Z,101903.03
2022-11-29T10:24:01.340Z,101902.72
2022-11-29T10:26:33.599Z,101911.66
2022-11-29T10:29:01.521Z,101908.25
2022-11-29T10:31:34.815Z,101925.88
2022-11-29T10:34:12.627Z,101921.28
2022-11-29T10:36:45.012Z,101923.59
2022-11-29T10:39:41.727Z,101922.59
2022-11-29T10:42:20.034Z,101925.19
2022-11-29T10:44:46.672Z,101923.75
2022-11-29T10:47:13.190Z,101903.66
2022-11-29T10:49:39.574Z,101918.69
2022-11-29T10:52:16.207Z,101908.56
2022-11-29T10:54:44.313Z,101924.88
2022-11-29T10:57:16.774Z,101927.94
2022-11-29T10:59:57.813Z,101934.94
2022-11-29T11:02:24.276Z,101917.59
2022-11-29T11:04:50.726Z,101920.53
2022-11-29T11:07:27.319Z,101929.00
2022-11-29T11:09:56.529Z,101929.16
2022-11-29T11:12:28.114Z,101926.19
2022-11-29T11:15:26.533Z,101930.94
2022-11-29T11:18:04.763Z,101921.16
2022-11-29T11:20:36.519Z,101928.16
2022-11-29T11:23:20.761Z,101935.00
2022-11-29T11:25:47.101Z,101941.03
2022-11-29T11:28:25.327Z,101935.78
2022-11-29T11:30:53.678Z,101937.44
2022-11-29T11:33:21.919Z,101937.09
2022-11-29T11:36:23.489Z,101931.16
2022-11-29T11:38:55.632Z,101927.22
2022-11-29T11:41:21.859Z,101937.31
2022-11-29T11:44:45.799Z,101935.00
2022-11-29T11:47:15.688Z,101936.91
2022-11-29T11:49:53.039Z,101935.22
2022-11-29T11:52:27.524Z,101935.16
2022-11-29T11:54:57.742Z,101945.22
2022-11-29T11:57:26.063Z,101953.25
2022-11-29T11:59:55.460Z,101930.75
2022-11-29T12:02:26.106Z,101945.75
2022-11-29T12:04:57.291Z,101937.13
2022-11-29T12:07:59.811Z,101929.97
2022-11-29T12:10:24.367Z,101937.50
2022-11-29T12:12:52.066Z,101941.09
2022-11-29T12:15:29.418Z,101944.53
2022-11-29T12:18:04.606Z,101962.19
2022-11-29T12:20:50.073Z,101952.84
2022-11-29T12:23:26.996Z,101945.63
2022-11-29T12:26:55.252Z,101963.56
2022-11-29T12:29:13.887Z,101958.00
2022-11-29T12:31:40.182Z,101967.06
2022-11-29T12:34:33.136Z,101955.09
2022-11-29T12:37:14.260Z,101977.97
2022-11-29T12:39:56.111Z,101970.47
2022-11-29T12:42:35.471Z,101977.88
2022-11-29T12:45:10.872Z,101975.44
2022-11-29T12:48:00.957Z,101974.63
2022-11-29T12:50:44.750Z,101974.63
2022-11-29T12:53:39.017Z,101975.25
2022-11-29T12:56:11.478Z,101980.50
2022-11-29T12:59:10.742Z,101955.38
2022-11-29T13:02:02.256Z,101973.81
2022-11-29T13:04:43.789Z,101970.56
2022-11-29T13:07:34.279Z,101960.78
2022-11-29T13:10:03.533Z,101966.59
2022-11-29T13:12:47.739Z,101962.16
2022-11-29T13:15:13.951Z,101957.34
2022-11-29T13:17:57.297Z,101956.63
2022-11-29T13:20:38.521Z,101974.97
2022-11-29T13:23:45.741Z,101974.50
2022-11-29T13:26:15.848Z,101971.91
2022-11-29T13:28:44.193Z,101971.91
2022-11-29T13:31:19.926Z,101979.06
2022-11-29T13:33:57.641Z,101976.63
2022-11-29T13:36:56.150Z,101975.09
2022-11-29T13:39:49.389Z,101974.41
2022-11-29T13:42:35.540Z,101969.50
2022-11-29T13:45:18.792Z,101965.63
2022-11-29T13:48:02.178Z,101975.22
2022-11-29T13:50:36.136Z,101977.97
2022-11-29T13:53:06.278Z,101968.63
2022-11-29T13:55:32.655Z,101971.88
2022-11-29T13:58:18.300Z,101969.56
2022-11-29T14:00:44.976Z,101990.91
2022-11-29T14:03:30.148Z,101976.63
2022-11-29T14:06:02.399Z,101984.84
2022-11-29T14:09:01.936Z,101979.59
2022-11-29T14:11:31.493Z,101986.75
2022-11-29T14:14:36.231Z,101996.06
2022-11-29T14:17:05.135Z,101981.59
2022-11-29T14:19:36.877Z,101992.56
2022-11-29T14:22:03.158Z,102000.13
2022-11-29T14:24:32.248Z,102002.50
2022-11-29T14:27:07.853Z,101999.94
2022-11-29T14:29:49.443Z,102000.22
2022-11-29T14:32:41.506Z,102005.72
2022-11-29T14:35:10.777Z,102005.78
2022-11-29T14:38:05.472Z,102003.22
2022-11-29T14:40:41.013Z,102001.66
2022-11-29T14:43:26.296Z,102004.34
2022-11-29T14:46:11.516Z,102007.34
2022-11-29T14:48:38.253Z,102008.41
2022-11-29T14:51:13.505Z,101992.44
2022-11-29T14:53:41.670Z,101996.06
2022-11-29T14:56:36.290Z,102014.06
2022-11-29T14:59:40.129Z,102015.56
2022-11-29T15:02:21.519Z,102025.94
2022-11-29T15:04:51.725Z,102000.47
2022-11-29T15:07:28.382Z,102011.13
2022-11-29T15:09:59.265Z,102006.03
2022-11-29T15:12:28.854Z,102021.91
2022-11-29T15:15:05.915Z,102008.38
2022-11-29T15:17:50.663Z,102007.94
2022-11-29T15:20:40.629Z,102015.91
2022-11-29T15:23:14.187Z,102020.81
2022-11-29T15:25:51.492Z,102023.63
2022-11-29T15:28:22.460Z,102012.88
2022-11-29T15:31:00.234Z,102020.88
2022-11-29T15:33:28.079Z,102014.72
2022-11-29T15:35:56.940Z,102016.69
2022-11-29T15:38:24.328Z,102026.31
2022-11-29T15:40:52.660Z,102018.31
2022-11-29T15:43:23.703Z,102017.19
2022-11-29T15:45:52.512Z,102033.84
2022-11-29T15:48:23.400Z,102034.97
2022-11-29T15:51:09.451Z,102038.75
2022-11-29T15:53:50.342Z,102032.38
2022-11-29T15:56:49.160Z,102028.63
2022-11-29T15:59:23.291Z,102030.28
2022-11-29T16:01:53.821Z,102027.50
2022-11-29T16:04:22.292Z,102017.72
2022-11-29T16:06:49.729Z,102010.34
2022-11-29T16:09:25.962Z,102016.22
2022-11-29T16:11:52.558Z,102019.31
2022-11-29T16:14:25.011Z,102020.00
2022-11-29T16:16:54.404Z,102013.16
2022-11-29T16:19:35.804Z,102037.47
2022-11-29T16:22:07.673Z,102035.00
2022-11-29T16:24:36.058Z,102019.34
2022-11-29T16:27:02.789Z,102026.22
2022-11-29T16:29:38.454Z,102028.00
2022-11-29T16:32:25.813Z,102036.31
2022-11-29T16:34:53.207Z,102033.72
2022-11-29T16:37:25.263Z,102038.44
2022-11-29T16:39:56.622Z,102036.69
2022-11-29T16:42:26.171Z,102037.16
2022-11-29T16:45:01.891Z,102043.22
2022-11-29T16:47:49.728Z,102036.84
2022-11-29T16:50:18.195Z,102034.38
2022-11-29T16:52:45.128Z,102032.13
2022-11-29T16:55:11.695Z,102034.72
2022-11-29T16:57:38.409Z,102035.53
2022-11-29T17:00:12.396Z,102050.56
2022-11-29T17:02:38.846Z,102039.31
2022-11-29T17:05:05.516Z,102055.47
2022-11-29T17:07:35.989Z,102060.38
2022-11-29T17:10:05.366Z,102055.47
2022-11-29T17:12:31.738Z,102052.84
2022-11-29T17:14:58.049Z,102047.97
2022-11-29T17:17:24.377Z,102061.84
2022-11-29T17:19:50.685Z,102071.97
2022-11-29T17:22:17.019Z,102056.91
2022-11-29T17:24:47.627Z,102055.97
2022-11-29T17:27:14.803Z,102065.09
2022-11-29T17:29:41.131Z,102046.00
2022-11-29T17:32:07.501Z,102056.91
2022-11-29T17:34:33.861Z,102058.88
2022-11-29T17:37:00.169Z,102063.63
2022-11-29T17:39:26.493Z,102063.47
2022-11-29T17:41:52.906Z,102078.50
2022-11-29T17:44:19.257Z,102063.47
2022-11-29T17:46:45.610Z,102079.47
2022-11-29T17:49:11.961Z,102067.38
2022-11-29T17:51:55.154Z,102077.53
2022-11-29T17:54:22.286Z,102083.91
2022-11-29T17:56:48.824Z,102081.13
2022-11-29T17:59:15.173Z,102086.16
2022-11-29T18:01:41.596Z,102095.31
2022-11-29T18:04:07.969Z,102082.41
2022-11-29T18:06:37.205Z,102087.16
2022-11-29T18:09:04.833Z,102101.38
2022-11-29T18:11:42.956Z,102095.50
2022-11-29T18:14:15.492Z,102104.47
2022-11-29T18:16:42.179Z,102101.84
2022-11-29T18:19:12.126Z,102092.06
2022-11-29T18:21:38.949Z,102103.66
2022-11-29T18:24:06.792Z,102110.84
2022-11-29T18:26:34.876Z,102114.63
2022-11-29T18:29:01.255Z,102120.00
2022-11-29T18:31:35.259Z,102121.81
2022-11-29T18:34:03.790Z,102117.53
2022-11-29T18:36:35.255Z,102112.97
2022-11-29T18:39:07.877Z,102120.34
2022-11-29T18:41:35.114Z,102122.94
2022-11-29T18:44:04.928Z,102117.72
2022-11-29T18:46:31.961Z,102125.56
2022-11-29T18:49:00.115Z,102121.78
2022-11-29T18:51:27.366Z,102126.03
2022-11-29T18:53:53.711Z,102121.13
2022-11-29T18:56:22.339Z,102130.94
2022-11-29T18:58:58.576Z,102140.41
2022-11-29T19:01:27.492Z,102128.78
2022-11-29T19:03:55.327Z,102135.66
2022-11-29T19:06:24.140Z,102129.13
2022-11-29T19:08:51.893Z,102121.94
2022-11-29T19:11:20.726Z,102146.63
2022-11-29T19:13:53.666Z,102145.63
2022-11-29T19:16:20.034Z,102142.28
2022-11-29T19:18:51.256Z,102137.00
2022-11-29T19:21:19.543Z,102143.03
2022-11-29T19:23:54.653Z,102146.72
2022-11-29T19:26:22.005Z,102153.41
2022-11-29T19:28:49.255Z,102149.94
2022-11-29T19:31:18.746Z,102155.66
2022-11-29T19:33:46.425Z,102152.53
2022-11-29T19:36:18.290Z,102162.31
2022-11-29T19:38:50.164Z,102168.38
2022-11-29T19:41:28.100Z,102172.91
2022-11-29T19:43:57.565Z,102155.06
2022-11-29T19:46:26.821Z,102154.88
2022-11-29T19:48:54.945Z,102163.03
2022-11-29T19:51:22.325Z,102166.81
2022-11-29T19:53:52.631Z,102164.97
2022-11-29T19:56:19.230Z,102162.97
2022-11-29T19:58:46.178Z,102169.09
2022-11-29T20:01:15.294Z,102168.72
2022-11-29T20:03:42.362Z,102165.31
2022-11-29T20:06:09.513Z,102170.97
2022-11-29T20:08:36.762Z,102180.91
2022-11-29T20:11:22.064Z,102186.38
2022-11-29T20:13:57.224Z,102183.69
2022-11-29T20:16:24.779Z,102183.25
2022-11-29T20:18:51.871Z,102182.97
2022-11-29T20:21:30.711Z,102181.03
2022-11-29T20:24:07.039Z,102186.91
2022-11-29T20:26:36.375Z,102180.97
2022-11-29T20:29:04.343Z,102185.56
2022-11-29T20:31:33.288Z,102195.84
2022-11-29T20:33:59.899Z,102185.75
2022-11-29T20:36:50.777Z,102211.66
2022-11-29T20:39:41.597Z,102207.16
2022-11-29T20:42:26.589Z,102208.28
2022-11-29T20:44:55.465Z,102205.28
2022-11-29T20:47:48.715Z,102206.47
2022-11-29T20:50:23.961Z,102214.78
2022-11-29T20:52:58.367Z,102202.34
2022-11-29T20:55:25.047Z,102223.38
2022-11-29T20:57:51.381Z,102205.56
2022-11-29T21:00:17.985Z,102215.41
2022-11-29T21:02:44.350Z,102225.25
2022-11-29T21:05:10.763Z,102229.19
2022-11-29T21:07:37.268Z,102226.72
2022-11-29T21:10:04.575Z,102228.88
2022-11-29T21:12:31.317Z,102237.41
2022-11-29T21:14:58.159Z,102233.28
2022-11-29T21:17:30.214Z,102240.44
2022-11-29T21:20:00.081Z,102225.44
2022-11-29T21:22:50.370Z,102236.69
2022-11-29T21:25:25.188Z,102240.81
2022-11-29T21:27:54.460Z,102243.63
2022-11-29T21:30:23.441Z,102242.66
2022-11-29T21:32:50.403Z,102241.16
2022-11-29T21:35:17.264Z,102236.78
2022-11-29T21:37:44.080Z,102238.25
2022-11-29T21:40:12.981Z,102232.38
2022-11-29T21:42:39.324Z,102236.47
2022-11-29T21:45:13.292Z,102248.25
2022-11-29T21:47:41.719Z,102235.03
2022-11-29T21:50:08.641Z,102254.38
2022-11-29T21:52:35.063Z,102239.59
2022-11-29T21:55:01.904Z,102243.06
2022-11-29T21:57:28.263Z,102254.41
2022-11-29T21:59:54.661Z,102253.19
2022-11-29T22:02:21.112Z,102260.88
2022-11-29T22:04:47.770Z,102266.22
2022-11-29T22:07:14.305Z,102261.28
2022-11-29T22:09:40.761Z,102258.28
2022-11-29T22:12:26.216Z,102275.78
2022-11-29T22:14:53.530Z,102270.00
2022-11-29T22:17:19.897Z,102268.75
2022-11-29T22:19:46.243Z,102258.22
2022-11-29T22:22:12.640Z,102261.75
2022-11-29T22:24:39.125Z,102268.28
2022-11-29T22:27:05.465Z,102275.03
2022-11-29T22:29:31.821Z,102266.09
2022-11-29T22:31:58.120Z,102270.06
2022-11-29T22:34:26.796Z,102257.88
2022-11-29T22:36:53.139Z,102266.38
2022-11-29T22:39:19.493Z,102266.91
2022-11-29T22:41:50.688Z,102265.84
2022-11-29T22:44:20.222Z,102259.44
2022-11-29T22:46:46.539Z,102265.69
2022-11-29T22:49:12.939Z,102266.25
2022-11-29T22:51:39.283Z,102269.44
2022-11-29T22:54:08.680Z,102267.28
2022-11-29T22:56:38.011Z,102274.78
2022-11-29T22:59:05.170Z,102268.22
2022-11-29T23:01:33.276Z,102264.94
2022-11-29T23:04:02.310Z,102255.78
2022-11-29T23:06:30.929Z,102269.06
2022-11-29T23:08:59.528Z,102279.59
2022-11-29T23:11:30.243Z,102278.78
2022-11-29T23:13:57.029Z,102271.53
2022-11-29T23:16:26.415Z,102277.00
2022-11-29T23:18:54.391Z,102275.34
2022-11-29T23:21:26.202Z,102271.94
2022-11-29T23:23:56.542Z,102281.09
2022-11-29T23:26:32.502Z,102287.41
2022-11-29T23:28:58.862Z,102279.84
2022-11-29T23:31:25.433Z,102264.81
2022-11-29T23:33:51.847Z,102276.72
2022-11-29T23:36:18.337Z,102278.50
2022-11-29T23:38:44.813Z,102277.53
2022-11-29T23:41:11.381Z,102267.28
2022-11-29T23:43:39.528Z,102287.84
2022-11-29T23:46:24.314Z,102286.75
2022-11-29T23:48:50.879Z,102282.25
2022-11-29T23:51:18.508Z,102294.44
2022-11-29T23:53:45.772Z,102293.34
2022-11-29T23:56:17.211Z,102277.69
2022-11-29T23:58:44.533Z,102289.50
